createdAt,value
2023-01-01T00:00:45.323Z,9.762040
2023-01-01T00:01:45.313Z,9.761842
2023-01-01T00:02:45.299Z,9.762053
2023-01-01T00:03:45.306Z,9.762505
2023-01-01T00:04:45.274Z,9.762460
2023-01-01T00:05:45.277Z,9.762460
2023-01-01T00:06:45.235Z,9.762460
2023-01-01T00:07:45.231Z,9.762542
2023-01-01T00:08:46.070Z,9.762317
2023-01-01T00:09:45.253Z,9.762362
2023-01-01T00:10:45.184Z,9.762300
2023-01-01T00:11:45.181Z,9.762465
2023-01-01T00:12:45.266Z,9.762722
2023-01-01T00:13:46.016Z,9.762912
2023-01-01T00:14:45.164Z,9.762609
2023-01-01T00:15:46.165Z,9.762365
2023-01-01T00:16:45.189Z,9.762613
2023-01-01T00:17:45.185Z,9.762282
2023-01-01T00:18:45.152Z,9.762167
2023-01-01T00:19:45.102Z,9.761904
2023-01-01T00:20:45.127Z,9.762354
2023-01-01T00:21:45.111Z,9.762023
2023-01-01T00:23:00.353Z,9.762023
2023-01-01T00:23:47.101Z,9.762023
2023-01-01T00:24:45.073Z,9.762023
2023-01-01T00:25:45.083Z,9.762023
2023-01-01T00:26:45.056Z,9.762023
2023-01-01T00:27:45.031Z,9.762023
2023-01-01T00:28:44.991Z,9.762023
2023-01-01T00:29:45.209Z,9.762023
2023-01-01T00:30:45.029Z,9.762023
2023-01-01T00:31:45.036Z,9.762023
2023-01-01T00:32:55.197Z,9.762023
2023-01-01T00:33:45.960Z,9.762023
2023-01-01T00:34:44.936Z,9.762023
2023-01-01T00:35:45.006Z,9.762023
2023-01-01T00:36:44.949Z,9.762023
2023-01-01T00:37:46.752Z,9.762023
2023-01-01T00:38:45.957Z,9.762023
2023-01-01T00:39:44.948Z,9.762023
2023-01-01T00:40:44.952Z,9.762023
2023-01-01T00:41:44.858Z,9.762023
2023-01-01T00:42:44.911Z,9.762023
2023-01-01T00:43:44.854Z,9.762023
2023-01-01T00:44:44.859Z,9.762023
2023-01-01T00:45:44.865Z,9.762023
2023-01-01T00:46:44.838Z,9.762498
2023-01-01T00:47:44.821Z,9.762620
2023-01-01T00:48:44.817Z,9.762634
2023-01-01T00:49:44.773Z,9.762564
2023-01-01T00:50:44.796Z,9.762430
2023-01-01T00:51:44.772Z,9.762728
2023-01-01T00:52:44.753Z,9.762754
2023-01-01T00:53:44.795Z,9.762754
2023-01-01T00:54:44.833Z,9.762754
2023-01-01T00:55:44.756Z,9.762754
2023-01-01T00:56:44.767Z,9.762754
2023-01-01T00:57:44.843Z,9.762754
2023-01-01T00:58:44.759Z,9.762754
2023-01-01T00:59:45.725Z,9.762754
2023-01-01T01:00:44.731Z,9.762754
2023-01-01T01:01:44.803Z,9.762754
2023-01-01T01:02:44.867Z,9.762754
2023-01-01T01:03:44.645Z,9.762754
2023-01-01T01:04:44.669Z,9.762754
2023-01-01T01:05:44.653Z,9.762754
2023-01-01T01:06:44.608Z,9.762754
2023-01-01T01:07:44.623Z,9.762754
2023-01-01T01:08:44.653Z,9.762754
2023-01-01T01:09:44.586Z,9.762754
2023-01-01T01:10:44.645Z,9.762754
2023-01-01T01:11:44.601Z,9.762754
2023-01-01T01:12:44.609Z,9.762754
2023-01-01T01:13:44.554Z,9.762754
2023-01-01T01:14:44.601Z,9.762754
2023-01-01T01:15:44.568Z,9.762754
2023-01-01T01:16:44.566Z,9.762754
2023-01-01T01:17:44.545Z,9.762754
2023-01-01T01:18:44.506Z,9.762754
2023-01-01T01:19:44.539Z,9.762754
2023-01-01T01:20:44.554Z,9.762754
2023-01-01T01:21:44.552Z,9.762754
2023-01-01T01:22:44.495Z,9.762754
2023-01-01T01:23:44.528Z,9.762754
2023-01-01T01:24:44.511Z,9.762754
2023-01-01T01:25:44.485Z,9.762754
2023-01-01T01:26:44.462Z,9.762754
2023-01-01T01:27:44.456Z,9.762754
2023-01-01T01:28:49.350Z,9.762754
2023-01-01T01:29:46.421Z,9.762754
2023-01-01T01:30:44.596Z,9.762754
2023-01-01T01:31:44.408Z,9.762754
2023-01-01T01:32:44.412Z,9.762754
2023-01-01T01:33:44.380Z,9.762754
2023-01-01T01:34:44.407Z,9.762754
2023-01-01T01:35:44.377Z,9.762754
2023-01-01T01:36:44.345Z,9.762754
2023-01-01T01:37:44.333Z,9.762754
2023-01-01T01:38:44.327Z,9.762754
2023-01-01T01:39:47.835Z,9.762754
2023-01-01T01:40:45.347Z,9.762754
2023-01-01T01:41:44.303Z,9.762754
2023-01-01T01:42:44.280Z,9.762754
2023-01-01T01:43:44.255Z,9.762754
2023-01-01T01:44:44.250Z,9.762754
2023-01-01T01:45:44.317Z,9.762754
2023-01-01T01:46:44.253Z,9.762754
2023-01-01T01:47:44.217Z,9.762754
2023-01-01T01:48:44.187Z,9.762754
2023-01-01T01:49:45.205Z,9.762754
2023-01-01T01:50:44.175Z,9.762754
2023-01-01T01:51:44.223Z,9.762754
2023-01-01T01:52:44.189Z,9.762920
2023-01-01T01:53:44.184Z,9.762815
2023-01-01T01:54:44.129Z,9.762843
2023-01-01T01:55:44.154Z,9.762878
2023-01-01T01:56:44.180Z,9.763000
2023-01-01T01:57:44.120Z,9.762560
2023-01-01T01:58:44.111Z,9.762983
2023-01-01T01:59:44.132Z,9.762578
2023-01-01T02:00:44.110Z,9.762578
2023-01-01T02:01:44.156Z,9.762578
2023-01-01T02:02:44.181Z,9.762852
2023-01-01T02:03:44.091Z,9.762852
2023-01-01T02:04:44.062Z,9.762794
2023-01-01T02:05:44.027Z,9.762722
2023-01-01T02:06:44.060Z,9.762854
2023-01-01T02:07:44.062Z,9.762854
2023-01-01T02:08:44.021Z,9.762854
2023-01-01T02:09:44.009Z,9.762854
2023-01-01T02:10:43.978Z,9.762854
2023-01-01T02:11:43.996Z,9.762854
2023-01-01T02:12:43.962Z,9.762813
2023-01-01T02:13:43.981Z,9.762839
2023-01-01T02:14:43.971Z,9.762763
2023-01-01T02:15:44.004Z,9.762763
2023-01-01T02:16:43.953Z,9.762763
2023-01-01T02:17:43.934Z,9.762757
2023-01-01T02:18:43.931Z,9.762837
2023-01-01T02:19:43.929Z,9.762782
2023-01-01T02:20:43.921Z,9.762854
2023-01-01T02:21:43.887Z,9.762881
2023-01-01T02:22:43.861Z,9.762852
2023-01-01T02:23:43.866Z,9.762731
2023-01-01T02:24:43.867Z,9.762799
2023-01-01T02:25:43.828Z,9.762722
2023-01-01T02:26:43.893Z,9.762712
2023-01-01T02:27:43.831Z,9.762644
2023-01-01T02:28:43.802Z,9.762715
2023-01-01T02:29:43.824Z,9.762456
2023-01-01T02:30:43.875Z,9.762663
2023-01-01T02:31:43.822Z,9.762792
2023-01-01T02:32:43.769Z,9.762794
2023-01-01T02:33:44.136Z,9.762792
2023-01-01T02:34:43.741Z,9.762673
2023-01-01T02:35:43.784Z,9.762795
2023-01-01T02:36:43.771Z,9.762865
2023-01-01T02:37:43.797Z,9.762788
2023-01-01T02:38:43.716Z,9.762756
2023-01-01T02:39:43.726Z,9.762679
2023-01-01T02:40:43.683Z,9.762539
2023-01-01T02:41:43.727Z,9.762831
2023-01-01T02:42:43.668Z,9.762884
2023-01-01T02:43:43.648Z,9.762698
2023-01-01T02:44:43.658Z,9.762598
2023-01-01T02:45:43.645Z,9.762574
2023-01-01T02:46:43.658Z,9.762755
2023-01-01T02:47:43.633Z,9.762769
2023-01-01T02:48:43.635Z,9.762835
2023-01-01T02:49:43.609Z,9.762731
2023-01-01T02:50:43.625Z,9.762688
2023-01-01T02:51:43.641Z,9.762817
2023-01-01T02:52:43.602Z,9.762960
2023-01-01T02:53:43.546Z,9.762780
2023-01-01T02:54:43.529Z,9.762742
2023-01-01T02:55:43.544Z,9.762762
2023-01-01T02:56:43.560Z,9.762829
2023-01-01T02:57:43.555Z,9.762735
2023-01-01T02:58:43.509Z,9.762808
2023-01-01T02:59:43.489Z,9.762902
2023-01-01T03:00:43.512Z,9.763053
2023-01-01T03:01:43.591Z,9.762781
2023-01-01T03:02:48.563Z,9.762815
2023-01-01T03:03:45.453Z,9.762973
2023-01-01T03:04:43.433Z,9.762796
2023-01-01T03:05:43.409Z,9.762753
2023-01-01T03:06:43.438Z,9.762980
2023-01-01T03:07:43.438Z,9.762714
2023-01-01T03:08:43.386Z,9.762857
2023-01-01T03:09:43.417Z,9.762933
2023-01-01T03:10:43.365Z,9.762741
2023-01-01T03:11:43.352Z,9.762641
2023-01-01T03:12:43.430Z,9.762442
2023-01-01T03:13:43.343Z,9.762581
2023-01-01T03:14:43.322Z,9.762708
2023-01-01T03:15:43.399Z,9.762774
2023-01-01T03:16:43.315Z,9.762755
2023-01-01T03:17:43.340Z,9.762751
2023-01-01T03:18:43.319Z,9.762771
2023-01-01T03:19:43.312Z,9.762764
2023-01-01T03:20:43.305Z,9.762878
2023-01-01T03:21:43.302Z,9.762882
2023-01-01T04:00:30.040Z,9.762823
2023-01-01T04:01:30.114Z,9.762765
2023-01-01T04:02:30.092Z,9.762765
2023-01-01T04:03:30.022Z,9.762765
2023-01-01T04:04:30.016Z,9.762765
2023-01-01T04:05:29.972Z,9.762723
2023-01-01T04:06:29.971Z,9.762756
2023-01-01T04:07:29.939Z,9.762753
2023-01-01T04:08:29.933Z,9.762708
2023-01-01T04:09:29.929Z,9.762750
2023-01-01T04:10:29.926Z,9.762789
2023-01-01T04:11:29.924Z,9.762733
2023-01-01T04:12:29.891Z,9.762900
2023-01-01T04:13:29.920Z,9.762833
2023-01-01T04:14:29.937Z,9.762796
2023-01-01T04:15:29.861Z,9.762811
2023-01-01T04:16:29.893Z,9.762771
2023-01-01T04:17:29.860Z,9.762809
2023-01-01T04:18:29.851Z,9.762765
2023-01-01T04:19:29.858Z,9.762697
2023-01-01T04:20:29.833Z,9.762656
2023-01-01T04:21:29.868Z,9.762840
2023-01-01T04:22:29.805Z,9.762745
2023-01-01T04:23:29.799Z,9.762698
2023-01-01T04:24:29.820Z,9.762811
2023-01-01T04:25:29.803Z,9.762566
2023-01-01T04:26:29.767Z,9.762667
2023-01-01T04:27:29.751Z,9.762528
2023-01-01T04:28:30.759Z,9.762790
2023-01-01T04:29:29.744Z,9.762792
2023-01-01T04:30:29.726Z,9.762793
2023-01-01T04:31:29.748Z,9.762877
2023-01-01T04:32:29.715Z,9.762703
2023-01-01T04:33:29.750Z,9.762880
2023-01-01T04:34:29.742Z,9.762840
2023-01-01T04:35:29.708Z,9.762177
2023-01-01T04:36:29.685Z,9.762631
2023-01-01T04:37:29.670Z,9.762813
2023-01-01T04:38:29.661Z,9.762738
2023-01-01T04:39:29.706Z,9.762770
2023-01-01T04:40:29.647Z,9.762864
2023-01-01T04:41:29.672Z,9.762739
2023-01-01T04:42:29.638Z,9.762771
2023-01-01T04:43:29.626Z,9.762787
2023-01-01T04:44:29.624Z,9.762795
2023-01-01T04:45:29.621Z,9.762707
2023-01-01T04:46:29.550Z,9.762658
2023-01-01T04:47:29.610Z,9.762969
2023-01-01T04:48:29.580Z,9.763429
2023-01-01T04:49:29.551Z,9.763182
2023-01-01T04:50:29.490Z,9.763040
2023-01-01T04:51:29.551Z,9.763034
2023-01-01T04:52:29.553Z,9.763077
2023-01-01T04:53:29.520Z,9.762996
2023-01-01T04:54:29.512Z,9.762732
2023-01-01T04:55:29.490Z,9.762799
2023-01-01T04:56:29.458Z,9.762715
2023-01-01T04:57:29.478Z,9.762810
2023-01-01T04:58:29.474Z,9.762778
2023-01-01T04:59:29.450Z,9.762739
2023-01-01T05:00:29.428Z,9.762725
2023-01-01T05:01:29.541Z,9.762718
2023-01-01T05:02:29.586Z,9.762718
2023-01-01T05:03:29.428Z,9.762917
2023-01-01T05:04:29.414Z,9.762711
2023-01-01T05:05:29.395Z,9.762631
2023-01-01T05:06:29.360Z,9.762401
2023-01-01T05:07:29.423Z,9.762441
2023-01-01T05:08:29.386Z,9.762470
2023-01-01T05:09:29.380Z,9.762225
2023-01-01T05:10:29.327Z,9.761922
2023-01-01T05:11:29.355Z,9.762022
2023-01-01T05:12:29.299Z,9.762382
2023-01-01T05:13:29.294Z,9.761107
2023-01-01T05:14:29.299Z,9.761127
2023-01-01T05:15:29.277Z,9.761683
2023-01-01T05:16:29.394Z,9.762351
2023-01-01T05:17:29.295Z,9.762824
2023-01-01T05:18:29.256Z,9.762773
2023-01-01T05:19:29.319Z,9.763016
2023-01-01T05:20:29.270Z,9.762980
2023-01-01T05:21:29.225Z,9.762718
2023-01-01T05:22:29.229Z,9.762648
2023-01-01T05:23:29.221Z,9.762734
2023-01-01T05:24:29.212Z,9.763124
2023-01-01T05:25:29.239Z,9.762753
2023-01-01T05:26:29.179Z,9.762676
2023-01-01T05:27:29.184Z,9.762783
2023-01-01T05:28:29.167Z,9.762745
2023-01-01T05:29:29.159Z,9.762766
2023-01-01T05:30:29.141Z,9.762592
2023-01-01T05:31:29.176Z,9.762475
2023-01-01T05:32:29.108Z,9.762692
2023-01-01T05:33:29.108Z,9.762970
2023-01-01T06:56:00.477Z,9.762415
2023-01-01T06:57:00.457Z,9.762816
2023-01-01T06:58:00.430Z,9.763115
2023-01-01T06:59:00.411Z,9.763283
2023-01-01T07:00:00.466Z,9.762775
2023-01-01T07:01:07.898Z,9.762775
2023-01-01T07:02:02.580Z,9.763079
2023-01-01T07:03:00.507Z,9.762801
2023-01-01T07:04:00.403Z,9.762888
2023-01-01T07:05:00.341Z,9.762755
2023-01-01T07:06:00.368Z,9.762941
2023-01-01T07:07:00.399Z,9.762855
2023-01-01T07:08:00.311Z,9.762992
2023-01-01T07:09:00.333Z,9.763087
2023-01-01T07:10:00.361Z,9.763085
2023-01-01T07:11:00.333Z,9.762877
2023-01-01T07:12:00.327Z,9.762856
2023-01-01T07:13:00.330Z,9.762828
2023-01-01T07:14:00.294Z,9.762595
2023-01-01T07:15:00.266Z,9.763309
2023-01-01T07:16:00.328Z,9.763120
2023-01-01T07:17:00.260Z,9.762934
2023-01-01T07:18:00.219Z,9.762946
2023-01-01T07:19:00.229Z,9.763296
2023-01-01T07:20:00.214Z,9.763372
2023-01-01T07:21:00.218Z,9.762831
2023-01-01T07:22:00.201Z,9.762838
2023-01-01T07:23:00.231Z,9.762986
2023-01-01T07:24:00.194Z,9.762673
2023-01-01T07:25:00.130Z,9.762901
2023-01-01T07:26:00.135Z,9.762901
2023-01-01T07:27:00.166Z,9.762786
2023-01-01T07:28:00.167Z,9.762741
2023-01-01T07:29:07.030Z,9.763161
2023-01-01T07:30:02.115Z,9.762998
2023-01-01T07:31:00.151Z,9.762801
2023-01-01T07:32:00.117Z,9.762812
2023-01-01T07:33:00.112Z,9.762747
2023-01-01T07:34:00.091Z,9.762678
2023-01-01T07:35:00.054Z,9.762678
2023-01-01T07:36:00.121Z,9.762944
2023-01-01T07:37:00.064Z,9.762911
2023-01-01T07:38:00.061Z,9.762641
2023-01-01T07:39:00.042Z,9.762666
2023-01-01T07:40:03.197Z,9.763104
2023-01-01T07:41:34.608Z,9.762975
2023-01-01T07:42:00.006Z,9.762933
2023-01-01T07:43:09.522Z,9.761728
2023-01-01T07:43:59.984Z,9.762682
2023-01-01T07:44:59.946Z,9.762784
2023-01-01T07:45:59.921Z,9.762918
2023-01-01T07:46:59.972Z,9.763098
2023-01-01T07:47:59.927Z,9.762723
2023-01-01T07:48:59.919Z,9.763080
2023-01-01T07:49:59.911Z,9.762888
2023-01-01T07:50:59.878Z,9.762875
2023-01-01T07:51:59.898Z,9.763097
2023-01-01T07:52:59.884Z,9.763097
2023-01-01T07:54:06.076Z,9.762913
2023-01-01T07:55:01.885Z,9.762895
2023-01-01T07:55:59.879Z,9.762932
2023-01-01T07:56:59.873Z,9.762425
2023-01-01T07:57:59.864Z,9.762559
2023-01-01T07:58:59.882Z,9.762621
2023-01-01T07:59:59.898Z,9.762342
2023-01-01T08:01:00.038Z,9.762361
2023-01-01T08:01:59.931Z,9.762908
2023-01-01T08:03:00.017Z,9.762886
2023-01-01T08:03:59.795Z,9.762779
2023-01-01T08:04:59.754Z,9.762845
2023-01-01T08:05:59.746Z,9.762886
2023-01-01T08:06:59.765Z,9.762852
2023-01-01T08:07:59.730Z,9.762824
2023-01-01T08:08:59.710Z,9.762867
2023-01-01T08:09:59.747Z,9.762706
2023-01-01T08:11:03.613Z,9.762775
2023-01-01T08:12:00.706Z,9.762832
2023-01-01T08:12:59.667Z,9.762840
2023-01-01T08:13:59.687Z,9.762814
2023-01-01T08:14:59.723Z,9.762703
2023-01-01T08:15:59.754Z,9.762775
2023-01-01T08:16:59.698Z,9.762852
2023-01-01T08:17:59.659Z,9.762814
2023-01-01T08:18:59.622Z,9.762827
2023-01-01T08:19:59.634Z,9.762302
2023-01-01T08:20:59.687Z,9.762729
2023-01-01T08:21:59.588Z,9.762946
2023-01-01T08:23:06.286Z,9.762839
2023-01-01T08:24:01.703Z,9.762794
2023-01-01T08:24:59.615Z,9.762499
2023-01-01T08:26:00.229Z,9.762832
2023-01-01T08:26:59.531Z,9.762828
2023-01-01T08:27:59.561Z,9.762739
2023-01-01T08:29:00.032Z,9.762512
2023-01-01T08:29:59.523Z,9.762678
2023-01-01T08:30:59.649Z,9.762758
2023-01-01T08:31:59.471Z,9.762847
2023-01-01T08:32:59.487Z,9.762666
2023-01-01T08:33:59.442Z,9.762560
2023-01-01T08:34:59.414Z,9.762465
2023-01-01T08:35:59.426Z,9.762517
2023-01-01T08:36:59.432Z,9.762745
2023-01-01T08:37:59.457Z,9.762748
2023-01-01T08:38:59.416Z,9.762679
2023-01-01T08:39:59.409Z,9.762707
2023-01-01T08:41:00.378Z,9.762818
2023-01-01T08:41:59.368Z,9.762689
2023-01-01T08:42:59.370Z,9.762659
2023-01-01T08:43:59.347Z,9.762957
2023-01-01T08:44:59.383Z,9.762861
2023-01-01T08:45:59.316Z,9.762978
2023-01-01T08:46:59.350Z,9.762713
2023-01-01T08:47:59.321Z,9.762768
2023-01-01T08:48:59.296Z,9.762816
2023-01-01T08:49:59.283Z,9.762771
2023-01-01T08:50:59.314Z,9.762856
2023-01-01T08:51:59.296Z,9.762918
2023-01-01T08:52:59.304Z,9.762779
2023-01-01T08:53:59.256Z,9.762798
2023-01-01T08:54:59.240Z,9.762775
2023-01-01T08:55:59.226Z,9.762843
2023-01-01T08:56:59.225Z,9.762799
2023-01-01T08:57:59.254Z,9.762894
2023-01-01T08:59:04.222Z,9.762688
2023-01-01T09:00:01.227Z,9.762707
2023-01-01T09:00:59.186Z,9.762676
2023-01-01T09:01:59.265Z,9.762713
2023-01-01T09:02:59.276Z,9.762770
2023-01-01T09:03:59.162Z,9.762805
2023-01-01T09:04:59.154Z,9.763055
2023-01-01T09:05:59.163Z,9.763056
2023-01-01T09:06:59.144Z,9.762934
2023-01-01T09:07:59.113Z,9.762779
2023-01-01T09:08:59.099Z,9.762905
2023-01-01T09:09:59.136Z,9.762934
2023-01-01T09:10:59.078Z,9.762984
2023-01-01T09:11:59.084Z,9.762924
2023-01-01T09:12:59.065Z,9.762834
2023-01-01T09:13:59.040Z,9.762840
2023-01-01T09:14:59.011Z,9.762831
2023-01-01T09:15:59.070Z,9.762820
2023-01-01T09:16:59.004Z,9.762499
2023-01-01T09:17:59.046Z,9.762740
2023-01-01T09:18:58.977Z,9.762984
2023-01-01T09:19:58.993Z,9.762628
2023-01-01T09:20:58.984Z,9.762630
2023-01-01T09:21:58.973Z,9.762772
2023-01-01T09:23:05.498Z,9.762834
2023-01-01T09:24:00.959Z,9.762762
2023-01-01T09:24:58.928Z,9.762710
2023-01-01T09:25:58.921Z,9.762706
2023-01-01T09:26:59.105Z,9.762895
2023-01-01T09:27:58.933Z,9.762915
2023-01-01T09:28:58.939Z,9.762834
2023-01-01T09:29:58.859Z,9.762871
2023-01-01T09:30:58.874Z,9.762924
2023-01-01T09:31:58.912Z,9.762789
2023-01-01T09:32:58.915Z,9.762804
2023-01-01T09:33:58.873Z,9.762748
2023-01-01T09:34:58.842Z,9.762713
2023-01-01T09:35:58.832Z,9.762690
2023-01-01T09:36:58.872Z,9.762654
2023-01-01T09:37:58.810Z,9.762702
2023-01-01T09:38:58.808Z,9.762618
2023-01-01T09:39:58.781Z,9.762659
2023-01-01T09:40:58.789Z,9.762691
2023-01-01T09:41:58.808Z,9.762713
2023-01-01T09:42:58.781Z,9.762735
2023-01-01T09:43:58.754Z,9.762777
2023-01-01T09:44:58.768Z,9.762847
2023-01-01T09:45:58.807Z,9.762838
2023-01-01T09:46:58.700Z,9.762723
2023-01-01T09:47:58.669Z,9.762774
2023-01-01T09:48:58.670Z,9.762723
2023-01-01T09:49:58.699Z,9.762773
2023-01-01T09:50:58.704Z,9.762737
2023-01-01T09:51:58.693Z,9.762749
2023-01-01T09:52:58.686Z,9.762791
2023-01-01T09:53:58.664Z,9.762717
2023-01-01T09:54:58.595Z,9.762670
2023-01-01T09:55:58.728Z,9.762723
